createdAt,value
2019-04-04T00:00:05.792Z,18.20
2019-04-04T00:01:05.781Z,19.40
2019-04-04T00:02:05.770Z,16.80
2019-04-04T00:03:05.765Z,19.10
2019-04-04T00:04:05.750Z,19.30
2019-04-04T00:05:05.737Z,17.70
2019-04-04T00:06:05.739Z,18.60
2019-04-04T00:07:05.716Z,22.20
2019-04-04T00:08:05.706Z,17.20
2019-04-04T00:09:05.694Z,17.20
2019-04-04T00:10:05.684Z,17.90
2019-04-04T00:11:06.054Z,19.00
2019-04-04T00:12:06.115Z,21.10
2019-04-04T00:13:05.655Z,17.70
2019-04-04T00:14:05.642Z,21.70
2019-04-04T00:15:05.630Z,20.40
2019-04-04T00:16:05.629Z,18.60
2019-04-04T00:17:05.608Z,18.70
2019-04-04T00:18:05.604Z,18.00
2019-04-04T00:19:05.586Z,18.80
2019-04-04T00:20:05.576Z,24.70
2019-04-04T00:21:05.569Z,18.80
2019-04-04T00:22:05.616Z,17.60
2019-04-04T00:23:06.872Z,17.00
2019-04-04T00:24:07.070Z,18.40
2019-04-04T00:25:05.521Z,18.40
2019-04-04T00:26:05.516Z,17.40
2019-04-04T00:27:05.503Z,20.20
2019-04-04T00:28:05.492Z,19.80
2019-04-04T00:29:05.478Z,18.60
2019-04-04T00:30:05.468Z,19.10
2019-04-04T00:31:05.456Z,17.60
2019-04-04T00:32:05.449Z,19.90
2019-04-04T00:33:05.436Z,20.80
2019-04-04T00:34:05.425Z,19.30
2019-04-04T00:35:05.415Z,19.60
2019-04-04T00:36:05.402Z,16.50
2019-04-04T00:37:05.396Z,17.30
2019-04-04T00:38:06.979Z,18.80
2019-04-04T00:39:05.373Z,18.10
2019-04-04T00:40:05.361Z,19.60
2019-04-04T00:41:05.349Z,19.10
2019-04-04T00:42:05.341Z,20.90
2019-04-04T00:43:05.329Z,17.50
2019-04-04T00:44:05.319Z,19.20
2019-04-04T00:45:05.311Z,19.50
2019-04-04T00:46:05.337Z,17.70
2019-04-04T00:47:05.287Z,19.40
2019-04-04T00:48:05.304Z,20.70
2019-04-04T00:49:05.463Z,17.30
2019-04-04T00:50:06.696Z,17.80
2019-04-04T00:51:07.709Z,16.80
2019-04-04T00:52:05.231Z,17.20
2019-04-04T00:53:05.225Z,21.80
2019-04-04T00:54:05.211Z,17.20
2019-04-04T00:55:05.199Z,21.40
2019-04-04T00:56:05.195Z,20.60
2019-04-04T00:57:05.180Z,19.30
2019-04-04T00:58:05.165Z,22.70
2019-04-04T00:59:05.154Z,19.90
2019-04-04T01:00:05.148Z,18.10
2019-04-04T01:01:05.134Z,22.20
2019-04-04T01:02:05.121Z,19.00
2019-04-04T01:03:05.113Z,20.70
2019-04-04T01:04:05.101Z,19.70
2019-04-04T01:05:05.090Z,22.00
2019-04-04T01:06:05.078Z,20.30
2019-04-04T01:07:05.720Z,19.60
2019-04-04T01:08:07.034Z,20.80
2019-04-04T01:09:05.048Z,19.90
2019-04-04T01:10:05.079Z,21.00
2019-04-04T01:11:05.027Z,20.80
2019-04-04T01:12:05.014Z,23.10
2019-04-04T01:13:05.009Z,17.80
2019-04-04T01:14:04.994Z,19.30
2019-04-04T01:15:04.984Z,20.50
2019-04-04T01:16:04.981Z,21.30
2019-04-04T01:17:04.959Z,18.30
2019-04-04T01:18:06.158Z,23.20
2019-04-04T01:19:04.938Z,20.80
2019-04-04T01:20:04.927Z,22.10
2019-04-04T01:21:04.926Z,19.10
2019-04-04T01:22:04.914Z,20.00
2019-04-04T01:23:04.894Z,19.80
2019-04-04T01:24:04.893Z,22.20
2019-04-04T01:25:04.873Z,23.10
2019-04-04T01:26:04.861Z,21.60
2019-04-04T01:27:06.330Z,20.00
2019-04-04T01:28:06.130Z,20.50
2019-04-04T01:29:05.907Z,20.50
2019-04-04T01:30:04.819Z,18.80
2019-04-04T01:31:04.811Z,21.80
2019-04-04T01:32:04.797Z,21.30
2019-04-04T01:33:04.785Z,20.10
2019-04-04T01:34:04.780Z,22.00
2019-04-04T01:35:04.766Z,21.90
2019-04-04T01:36:04.753Z,22.10
2019-04-04T01:37:04.745Z,20.10
2019-04-04T01:38:04.734Z,20.00
2019-04-04T01:39:04.743Z,21.20
2019-04-04T01:40:04.712Z,19.90
2019-04-04T01:41:05.176Z,19.70
2019-04-04T01:42:06.822Z,20.60
2019-04-04T01:43:04.679Z,20.00
2019-04-04T01:44:05.544Z,21.00
2019-04-04T01:45:04.656Z,20.00
2019-04-04T01:46:04.646Z,20.50
2019-04-04T01:47:04.641Z,23.70
2019-04-04T01:48:04.676Z,22.10
2019-04-04T01:49:04.614Z,19.90
2019-04-04T01:50:04.608Z,20.60
2019-04-04T01:51:07.625Z,20.80
2019-04-04T01:52:04.583Z,19.80
2019-04-04T01:53:04.573Z,19.50
2019-04-04T01:54:04.567Z,18.90
2019-04-04T01:55:04.556Z,19.50
2019-04-04T01:56:06.847Z,23.00
2019-04-04T01:57:07.812Z,21.40
2019-04-04T01:58:04.517Z,21.30
2019-04-04T01:59:04.518Z,21.90
2019-04-04T02:00:04.499Z,20.50
2019-04-04T02:01:04.488Z,21.10
2019-04-04T02:02:04.477Z,18.80
2019-04-04T02:03:04.470Z,21.70
2019-04-04T02:04:04.456Z,20.50
2019-04-04T02:05:04.445Z,20.30
2019-04-04T02:06:04.432Z,24.50
2019-04-04T02:07:04.421Z,20.80
2019-04-04T02:08:04.410Z,20.00
2019-04-04T02:09:04.405Z,20.70
2019-04-04T02:10:05.358Z,19.00
2019-04-04T02:11:05.545Z,21.30
2019-04-04T02:12:07.605Z,20.00
2019-04-04T02:13:04.357Z,22.90
2019-04-04T02:14:04.348Z,20.20
2019-04-04T02:15:04.338Z,18.70
2019-04-04T02:16:04.327Z,22.00
2019-04-04T02:17:04.314Z,22.70
2019-04-04T02:18:04.303Z,22.20
2019-04-04T02:19:04.299Z,19.40
2019-04-04T02:20:04.287Z,18.70
2019-04-04T02:21:04.285Z,25.20
2019-04-04T02:22:04.264Z,18.10
2019-04-04T02:23:04.250Z,21.60
2019-04-04T02:24:04.241Z,21.00
2019-04-04T02:25:04.230Z,19.20
2019-04-04T02:26:05.254Z,21.40
2019-04-04T02:27:04.953Z,20.80
2019-04-04T02:28:04.198Z,23.90
2019-04-04T02:29:04.192Z,20.30
2019-04-04T02:30:04.180Z,20.70
2019-04-04T02:31:04.167Z,19.90
2019-04-04T02:32:04.166Z,21.40
2019-04-04T02:33:04.146Z,20.00
2019-04-04T02:34:06.250Z,22.70
2019-04-04T02:35:04.125Z,20.50
2019-04-04T02:36:04.115Z,18.40
2019-04-04T02:37:04.103Z,26.30
2019-04-04T02:38:04.092Z,19.70
2019-04-04T02:39:04.080Z,20.90
2019-04-04T02:40:05.971Z,26.10
2019-04-04T02:41:04.062Z,20.40
2019-04-04T02:42:04.053Z,21.00
2019-04-04T02:43:04.051Z,20.90
2019-04-04T02:44:04.030Z,21.60
2019-04-04T02:45:05.481Z,22.80
2019-04-04T02:46:04.006Z,19.90
2019-04-04T02:47:04.001Z,21.30
2019-04-04T02:48:03.984Z,22.60
2019-04-04T02:49:03.973Z,21.10
2019-04-04T02:50:04.022Z,21.90
2019-04-04T02:51:07.068Z,24.10
2019-04-04T02:52:03.963Z,20.00
2019-04-04T02:53:03.931Z,25.00
2019-04-04T02:54:03.921Z,22.00
2019-04-04T02:55:03.912Z,23.40
2019-04-04T02:56:03.915Z,25.20
2019-04-04T02:57:08.158Z,21.60
2019-04-04T02:58:04.894Z,21.60
2019-04-04T02:59:03.867Z,20.00
2019-04-04T03:00:03.860Z,22.20
2019-04-04T03:01:03.851Z,19.70
2019-04-04T03:02:05.898Z,20.40
2019-04-04T03:03:08.273Z,22.00
2019-04-04T03:04:04.812Z,22.50
2019-04-04T03:05:03.803Z,20.30
2019-04-04T03:06:03.813Z,21.80
2019-04-04T03:07:03.782Z,20.60
2019-04-04T03:08:04.601Z,22.10
2019-04-04T03:09:03.758Z,23.30
2019-04-04T03:10:03.748Z,21.30
2019-04-04T03:11:03.739Z,22.70
2019-04-04T03:12:03.728Z,21.30
2019-04-04T03:13:03.722Z,20.10
2019-04-04T03:14:04.633Z,22.20
2019-04-04T03:15:03.701Z,23.30
2019-04-04T03:16:03.684Z,22.30
2019-04-04T03:17:03.681Z,21.80
2019-04-04T03:18:05.186Z,20.90
2019-04-04T03:19:03.656Z,21.20
2019-04-04T03:20:03.686Z,22.60
2019-04-04T03:21:03.638Z,24.00
2019-04-04T03:22:03.624Z,21.00
2019-04-04T03:23:03.615Z,23.40
2019-04-04T03:24:06.340Z,22.00
2019-04-04T03:25:03.593Z,22.90
2019-04-04T03:26:03.578Z,25.20
2019-04-04T03:27:03.573Z,22.40
2019-04-04T03:28:03.565Z,24.90
2019-04-04T03:29:05.473Z,18.80
2019-04-04T03:30:03.534Z,23.70
2019-04-04T03:31:04.073Z,21.20
2019-04-04T03:32:03.522Z,19.10
2019-04-04T03:33:03.545Z,23.80
2019-04-04T03:34:08.975Z,21.50
2019-04-04T03:35:04.488Z,24.20
2019-04-04T03:36:03.479Z,22.30
2019-04-04T03:37:06.054Z,19.70
2019-04-04T03:38:03.481Z,20.60
2019-04-04T03:39:03.443Z,25.40
2019-04-04T03:40:03.433Z,24.20
2019-04-04T03:41:03.417Z,21.20
2019-04-04T03:42:07.115Z,20.50
2019-04-04T03:43:03.400Z,22.60
2019-04-04T03:44:03.387Z,23.90
2019-04-04T03:45:03.381Z,23.80
2019-04-04T03:46:03.362Z,23.20
2019-04-04T03:47:03.350Z,23.10
2019-04-04T03:48:03.352Z,20.30
2019-04-04T03:49:03.337Z,22.90
2019-04-04T03:50:03.326Z,24.60
2019-04-04T03:51:04.915Z,20.90
2019-04-04T03:52:03.296Z,26.20
2019-04-04T03:53:03.287Z,19.90
2019-04-04T03:54:03.278Z,23.60
2019-04-04T03:55:03.268Z,21.30
2019-04-04T03:56:03.257Z,20.30
2019-04-04T03:57:03.243Z,22.20
2019-04-04T03:58:03.237Z,24.00
2019-04-04T03:59:03.240Z,24.40
2019-04-04T04:00:06.226Z,23.10
2019-04-04T04:01:03.202Z,22.00
2019-04-04T04:02:03.201Z,23.30
2019-04-04T04:03:03.186Z,22.60
2019-04-04T04:04:03.173Z,22.70
2019-04-04T04:05:03.167Z,23.20
2019-04-04T04:06:03.182Z,22.30
2019-04-04T04:07:03.143Z,24.10
2019-04-04T04:08:03.124Z,22.10
2019-04-04T04:09:03.127Z,23.90
2019-04-04T04:10:03.105Z,21.10
2019-04-04T04:11:05.904Z,22.50
2019-04-04T04:12:03.090Z,23.10
2019-04-04T04:13:03.072Z,24.10
2019-04-04T04:14:03.064Z,24.00
2019-04-04T04:15:03.055Z,21.50
2019-04-04T04:16:03.958Z,25.90
2019-04-04T04:17:03.029Z,22.20
2019-04-04T04:18:03.034Z,23.60
2019-04-04T04:19:03.009Z,23.70
2019-04-04T04:20:04.173Z,23.80
2019-04-04T04:21:02.988Z,22.60
2019-04-04T04:22:02.978Z,21.80
2019-04-04T04:23:02.968Z,22.70
2019-04-04T04:24:02.956Z,20.50
2019-04-04T04:25:03.746Z,23.40
2019-04-04T04:26:02.936Z,24.40
2019-04-04T04:27:02.924Z,22.80
2019-04-04T04:28:03.241Z,24.30
2019-04-04T04:29:02.904Z,21.10
2019-04-04T04:30:05.977Z,20.70
2019-04-04T04:31:02.878Z,21.30
2019-04-04T04:32:02.911Z,21.40
2019-04-04T04:33:02.869Z,23.40
2019-04-04T04:34:02.872Z,23.40
2019-04-04T04:35:07.612Z,24.10
2019-04-04T04:36:03.822Z,22.10
2019-04-04T04:37:02.813Z,22.70
2019-04-04T04:38:02.808Z,20.20
2019-04-04T04:39:02.791Z,24.50
2019-04-04T04:40:02.792Z,19.70
2019-04-04T04:41:02.778Z,25.20
2019-04-04T04:42:02.763Z,22.60
2019-04-04T04:43:02.769Z,20.80
2019-04-04T04:44:05.597Z,19.70
2019-04-04T04:45:02.752Z,22.60
2019-04-04T04:46:02.722Z,20.60
2019-04-04T04:47:02.715Z,21.60
2019-04-04T04:48:02.695Z,21.40
2019-04-04T04:49:03.194Z,19.90
2019-04-04T04:50:02.684Z,21.40
2019-04-04T04:51:02.667Z,23.30
2019-04-04T04:52:02.653Z,21.70
2019-04-04T04:53:02.649Z,22.70
2019-04-04T04:54:02.637Z,21.60
2019-04-04T04:55:02.625Z,22.60
2019-04-04T04:56:02.613Z,20.90
2019-04-04T04:57:03.924Z,21.70
2019-04-04T04:58:02.588Z,22.90
2019-04-04T04:59:02.581Z,20.70
2019-04-04T05:00:02.569Z,23.20
2019-04-04T05:01:02.557Z,26.40
2019-04-04T05:02:02.548Z,21.70
2019-04-04T05:03:02.568Z,24.70
2019-04-04T05:04:02.782Z,26.30
2019-04-04T05:05:02.517Z,23.30
2019-04-04T05:06:03.325Z,23.00
2019-04-04T05:07:02.550Z,22.50
2019-04-04T05:08:02.481Z,22.30
2019-04-04T05:09:02.479Z,20.40
2019-04-04T05:10:02.462Z,24.10
2019-04-04T05:11:02.449Z,21.30
2019-04-04T05:12:02.439Z,22.40
2019-04-04T05:13:02.428Z,24.50
2019-04-04T05:14:02.418Z,23.50
2019-04-04T05:15:02.413Z,24.90
2019-04-04T05:16:05.231Z,21.30
2019-04-04T05:17:03.383Z,21.30
2019-04-04T05:18:02.418Z,22.10
2019-04-04T05:19:02.362Z,22.80
2019-04-04T05:20:02.353Z,22.00
2019-04-04T05:21:02.647Z,22.00
2019-04-04T05:22:02.334Z,23.30
2019-04-04T05:23:02.326Z,21.80
2019-04-04T05:24:02.309Z,23.50
2019-04-04T05:25:08.353Z,20.90
2019-04-04T05:26:03.364Z,20.00
2019-04-04T05:27:03.984Z,22.10
2019-04-04T05:28:02.271Z,22.80
2019-04-04T05:29:02.257Z,21.20
2019-04-04T05:30:02.264Z,22.40
2019-04-04T05:31:02.235Z,20.30
2019-04-04T05:32:02.227Z,19.70
2019-04-04T05:33:02.218Z,21.80
2019-04-04T05:34:02.209Z,21.00
2019-04-04T05:35:02.235Z,21.60
2019-04-04T05:36:04.842Z,21.10
2019-04-04T05:37:02.169Z,21.10
2019-04-04T05:38:02.162Z,20.30
2019-04-04T05:39:02.147Z,22.50
2019-04-04T05:40:02.186Z,23.00
2019-04-04T05:41:02.133Z,24.60
2019-04-04T05:42:02.135Z,19.90
2019-04-04T05:43:04.185Z,22.30
2019-04-04T05:44:02.099Z,23.20
2019-04-04T05:45:02.085Z,19.40
2019-04-04T05:46:02.073Z,25.10
2019-04-04T05:47:02.077Z,20.00
2019-04-04T05:48:02.056Z,20.80
2019-04-04T05:49:07.704Z,21.60
2019-04-04T05:50:03.112Z,25.10
2019-04-04T05:51:02.037Z,21.30
2019-04-04T05:52:02.009Z,19.60
2019-04-04T05:53:04.045Z,21.20
2019-04-04T05:54:01.987Z,20.20
2019-04-04T05:55:02.020Z,22.50
2019-04-04T05:56:01.966Z,22.20
2019-04-04T05:57:03.287Z,21.40
2019-04-04T05:58:01.958Z,24.30
2019-04-04T05:59:01.932Z,18.90
2019-04-04T06:00:01.922Z,18.80
2019-04-04T06:01:02.635Z,20.50
2019-04-04T06:02:01.902Z,22.40
2019-04-04T06:03:01.891Z,22.00
2019-04-04T06:04:03.967Z,20.60
2019-04-04T06:05:01.937Z,20.70
2019-04-04T06:06:02.012Z,24.30
2019-04-04T06:07:03.998Z,22.60
2019-04-04T06:08:01.878Z,20.50
2019-04-04T06:09:01.831Z,20.90
2019-04-04T06:10:01.817Z,19.30
2019-04-04T06:11:01.809Z,22.40
2019-04-04T06:12:01.792Z,23.50
2019-04-04T06:13:01.789Z,19.40
2019-04-04T06:14:01.778Z,18.80
2019-04-04T06:15:01.767Z,19.80
2019-04-04T06:16:02.054Z,20.30
2019-04-04T06:17:01.741Z,17.70
2019-04-04T06:18:01.730Z,18.30
2019-04-04T06:19:01.717Z,19.40
2019-04-04T06:20:01.705Z,22.10
2019-04-04T06:21:01.696Z,22.10
2019-04-04T06:22:01.685Z,22.80
2019-04-04T06:23:01.677Z,21.40
2019-04-04T06:24:01.668Z,21.60
2019-04-04T06:25:01.657Z,21.10
2019-04-04T06:26:01.646Z,17.80
2019-04-04T06:27:01.631Z,20.20
2019-04-04T06:28:01.625Z,19.30
2019-04-04T06:29:01.614Z,17.30
2019-04-04T06:30:01.600Z,18.00
2019-04-04T06:31:01.589Z,22.00
2019-04-04T06:32:01.581Z,19.50
2019-04-04T06:33:03.909Z,19.00
2019-04-04T06:34:01.559Z,18.40
2019-04-04T06:35:01.547Z,20.00
2019-04-04T06:36:01.536Z,18.60
2019-04-04T06:37:01.527Z,20.20
2019-04-04T06:38:01.535Z,22.90
2019-04-04T06:39:01.505Z,19.00
2019-04-04T06:40:01.500Z,18.10
2019-04-04T06:41:01.579Z,21.80
2019-04-04T06:42:03.246Z,20.90
2019-04-04T06:43:03.757Z,19.70
2019-04-04T06:44:01.454Z,20.20
2019-04-04T06:45:01.437Z,21.80
2019-04-04T06:46:01.429Z,18.70
2019-04-04T06:47:02.090Z,20.60
2019-04-04T06:48:01.404Z,17.10
2019-04-04T06:49:03.983Z,21.10
2019-04-04T06:50:01.384Z,22.30
2019-04-04T06:51:01.372Z,19.30
2019-04-04T06:52:01.360Z,19.30
2019-04-04T06:53:01.353Z,17.00
2019-04-04T06:54:01.343Z,21.10
2019-04-04T06:55:01.331Z,20.80
2019-04-04T06:56:01.326Z,17.90
2019-04-04T06:57:03.536Z,19.00
2019-04-04T06:58:01.298Z,16.90
2019-04-04T06:59:01.296Z,18.40
2019-04-04T07:00:01.273Z,16.80
2019-04-04T07:01:01.266Z,20.30
2019-04-04T07:02:01.252Z,17.30
2019-04-04T07:03:01.244Z,18.30
2019-04-04T07:04:01.231Z,16.70
2019-04-04T07:05:01.222Z,20.10
2019-04-04T07:06:01.210Z,18.80
2019-04-04T07:07:01.199Z,17.80
2019-04-04T07:08:01.188Z,16.00
2019-04-04T07:09:01.301Z,17.00
2019-04-04T07:10:01.179Z,18.70
2019-04-04T07:11:03.216Z,19.90
2019-04-04T07:12:01.148Z,16.50
2019-04-04T07:13:20.200Z,17.10
2019-04-04T07:14:02.123Z,15.70
2019-04-04T07:15:01.125Z,16.70
2019-04-04T07:16:06.765Z,14.90
2019-04-04T07:17:02.182Z,15.80
2019-04-04T07:18:01.080Z,17.80
2019-04-04T07:19:01.076Z,17.60
2019-04-04T07:20:01.060Z,18.80
2019-04-04T07:21:03.428Z,15.30
2019-04-04T07:22:01.061Z,17.50
2019-04-04T07:23:01.029Z,18.40
2019-04-04T07:24:01.016Z,16.40
2019-04-04T07:25:01.424Z,17.20
2019-04-04T07:26:00.996Z,16.30
2019-04-04T07:27:00.984Z,18.60
2019-04-04T07:28:00.983Z,17.10
2019-04-04T07:29:00.969Z,15.90
2019-04-04T07:30:00.952Z,16.60
2019-04-04T07:31:01.764Z,20.90
2019-04-04T07:32:00.931Z,17.80
2019-04-04T07:33:00.924Z,19.70
2019-04-04T07:34:00.909Z,16.00
2019-04-04T07:35:00.899Z,13.40
2019-04-04T07:36:00.886Z,16.30
2019-04-04T07:37:00.877Z,17.60
2019-04-04T07:38:00.867Z,16.60
2019-04-04T07:39:01.011Z,13.10
2019-04-04T07:40:03.149Z,18.10
2019-04-04T07:41:00.835Z,15.10
2019-04-04T07:42:00.823Z,15.60
2019-04-04T07:43:00.814Z,17.70
2019-04-04T07:44:00.802Z,19.70
2019-04-04T07:45:00.791Z,15.40
2019-04-04T07:46:15.342Z,15.90
2019-04-04T07:47:01.773Z,19.60
2019-04-04T07:48:00.761Z,14.00
2019-04-04T07:49:00.748Z,16.20
2019-04-04T07:50:00.740Z,17.00
2019-04-04T07:51:00.728Z,15.40
2019-04-04T07:52:01.959Z,14.60
2019-04-04T07:53:04.080Z,17.40
2019-04-04T07:54:00.697Z,14.10
2019-04-04T07:55:00.689Z,13.50
2019-04-04T07:56:00.675Z,16.00
2019-04-04T07:57:00.662Z,14.20
2019-04-04T07:58:00.654Z,16.20
2019-04-04T07:59:00.644Z,14.60
2019-04-04T08:00:00.635Z,18.50
2019-04-04T08:01:00.623Z,16.30
2019-04-04T08:02:00.610Z,16.30
2019-04-04T08:03:00.601Z,15.60
2019-04-04T08:04:00.589Z,14.60
2019-04-04T08:05:00.578Z,16.80
2019-04-04T08:06:00.574Z,13.70
2019-04-04T08:07:00.559Z,14.90
2019-04-04T08:08:00.547Z,13.90
2019-04-04T08:09:00.541Z,17.40
2019-04-04T08:10:00.528Z,12.50
2019-04-04T08:11:00.515Z,15.80
2019-04-04T08:12:00.511Z,12.80
2019-04-04T08:13:00.494Z,14.70
2019-04-04T08:14:00.483Z,15.50
2019-04-04T08:15:00.475Z,12.60
2019-04-04T08:16:00.462Z,14.20
2019-04-04T08:17:00.450Z,16.60
2019-04-04T08:18:00.450Z,15.10
2019-04-04T08:19:00.431Z,12.60
2019-04-04T08:20:00.423Z,14.10
2019-04-04T08:21:00.410Z,13.20
2019-04-04T08:22:00.469Z,13.20
2019-04-04T08:23:00.400Z,13.20
2019-04-04T08:24:00.380Z,12.50
2019-04-04T08:25:00.366Z,13.90
2019-04-04T08:26:00.355Z,13.10
2019-04-04T08:27:00.355Z,12.90
2019-04-04T08:28:00.335Z,13.20
2019-04-04T08:29:00.327Z,12.50
2019-04-04T08:30:00.317Z,13.70
2019-04-04T08:31:00.309Z,11.80
2019-04-04T08:32:00.293Z,11.70
2019-04-04T08:33:00.286Z,15.50
2019-04-04T08:34:00.272Z,13.50
2019-04-04T08:35:00.263Z,11.90
2019-04-04T08:36:05.802Z,16.00
2019-04-04T08:37:01.240Z,12.40
2019-04-04T08:38:00.231Z,14.80
2019-04-04T08:39:00.220Z,11.00
2019-04-04T08:40:00.213Z,12.40
2019-04-04T08:41:00.199Z,12.10
2019-04-04T08:42:00.188Z,13.20
2019-04-04T08:43:00.184Z,13.20
2019-04-04T08:44:00.167Z,12.20
2019-04-04T08:45:00.158Z,11.70
2019-04-04T08:46:00.146Z,16.10
2019-04-04T08:47:00.135Z,12.80
2019-04-04T08:48:00.133Z,13.50
2019-04-04T08:49:00.118Z,14.00
2019-04-04T08:50:00.107Z,12.70
2019-04-04T08:51:00.105Z,12.50
2019-04-04T08:52:00.086Z,14.70
2019-04-04T08:53:00.075Z,13.50
2019-04-04T08:54:00.072Z,12.00
2019-04-04T08:55:00.058Z,12.60
2019-04-04T08:56:00.048Z,10.10
2019-04-04T08:57:00.039Z,10.90
2019-04-04T08:58:00.026Z,10.60
2019-04-04T08:59:00.015Z,11.00
2019-04-04T09:00:00.006Z,12.70
2019-04-04T09:00:59.998Z,10.70
2019-04-04T09:01:59.985Z,10.50
2019-04-04T09:02:59.975Z,10.90
2019-04-04T09:03:59.967Z,11.30
2019-04-04T09:05:11.275Z,13.70
2019-04-04T09:06:00.947Z,11.90
2019-04-04T09:06:59.937Z,13.40
2019-04-04T09:07:59.924Z,11.00
2019-04-04T09:08:59.918Z,12.60
2019-04-04T09:09:59.906Z,12.90
2019-04-04T09:10:59.894Z,12.20
2019-04-04T09:11:59.885Z,10.50
2019-04-04T09:12:59.876Z,11.60
2019-04-04T09:13:59.865Z,12.40
2019-04-04T09:14:59.855Z,11.60
2019-04-04T09:15:59.845Z,11.40
2019-04-04T09:16:59.835Z,10.90
2019-04-04T09:17:59.829Z,11.20
2019-04-04T09:18:59.814Z,12.70
2019-04-04T09:19:59.804Z,11.30
2019-04-04T09:20:59.802Z,13.70
2019-04-04T09:21:59.793Z,12.80
2019-04-04T09:22:59.783Z,9.90
2019-04-04T09:24:00.832Z,11.30
2019-04-04T09:25:01.345Z,10.50
2019-04-04T09:26:05.542Z,9.90
2019-04-04T09:27:00.735Z,12.20
2019-04-04T09:27:59.725Z,12.60
2019-04-04T09:28:59.719Z,11.50
2019-04-04T09:29:59.712Z,12.20
2019-04-04T09:30:59.698Z,11.80
2019-04-04T09:31:59.689Z,11.70
2019-04-04T09:32:59.675Z,12.90
2019-04-04T09:33:59.665Z,10.60
2019-04-04T09:34:59.660Z,11.10
2019-04-04T09:35:59.646Z,11.30
2019-04-04T09:36:59.637Z,12.40
2019-04-04T09:37:59.627Z,9.50
2019-04-04T09:38:59.615Z,10.70
2019-04-04T09:39:59.607Z,9.60
2019-04-04T09:40:59.597Z,11.30
2019-04-04T09:41:59.586Z,10.60
2019-04-04T09:42:59.577Z,11.70
2019-04-04T09:43:59.565Z,11.60
2019-04-04T09:44:59.560Z,10.50
2019-04-04T09:45:59.548Z,9.30
2019-04-04T09:47:05.246Z,10.80
2019-04-04T09:48:00.525Z,11.20
2019-04-04T09:48:59.520Z,11.80
2019-04-04T09:49:59.511Z,10.50
2019-04-04T09:50:59.497Z,9.50
2019-04-04T09:51:59.490Z,11.20
2019-04-04T09:52:59.476Z,10.30
2019-04-04T09:53:59.479Z,10.10
2019-04-04T09:54:59.459Z,10.90
2019-04-04T09:55:59.448Z,10.00
2019-04-04T09:56:59.438Z,9.80
2019-04-04T09:57:59.427Z,9.90
2019-04-04T09:58:59.418Z,10.20
2019-04-04T09:59:59.409Z,11.40
2019-04-04T10:00:59.405Z,10.20
2019-04-04T10:01:59.389Z,10.30
2019-04-04T10:02:59.378Z,10.40
2019-04-04T10:03:59.369Z,9.50
2019-04-04T10:04:59.358Z,12.30
2019-04-04T10:05:59.349Z,10.60
2019-04-04T10:06:59.363Z,11.10
2019-04-04T10:07:59.329Z,9.70
2019-04-04T10:08:59.441Z,9.60
2019-04-04T10:09:59.307Z,10.40
2019-04-04T10:10:59.300Z,10.60
2019-04-04T10:11:59.296Z,11.60
2019-04-04T10:12:59.284Z,11.30
2019-04-04T10:13:59.277Z,9.90
2019-04-04T10:14:59.258Z,12.30
2019-04-04T10:15:59.248Z,9.30
2019-04-04T10:16:59.246Z,9.50
2019-04-04T10:17:59.230Z,12.10
2019-04-04T10:18:59.224Z,10.00
2019-04-04T10:19:59.210Z,12.20
2019-04-04T10:21:11.144Z,10.90
2019-04-04T10:22:00.188Z,10.80
2019-04-04T10:22:59.183Z,9.00
2019-04-04T10:23:59.170Z,11.40
2019-04-04T10:24:59.159Z,8.30
2019-04-04T10:25:59.150Z,11.00
2019-04-04T10:26:59.165Z,11.40
2019-04-04T10:27:59.137Z,11.00
2019-04-04T10:28:59.124Z,9.20
2019-04-04T10:29:59.112Z,10.10
2019-04-04T10:30:59.103Z,10.30
2019-04-04T10:31:59.104Z,9.90
2019-04-04T10:32:59.081Z,10.10
2019-04-04T10:33:59.079Z,8.50
2019-04-04T10:34:59.061Z,9.20
2019-04-04T10:35:59.051Z,7.90
2019-04-04T10:36:59.043Z,8.50
2019-04-04T10:37:59.033Z,8.50
2019-04-04T10:38:59.023Z,11.20
2019-04-04T10:39:59.013Z,9.10
2019-04-04T10:40:59.003Z,8.10
2019-04-04T10:41:58.998Z,10.60
2019-04-04T10:42:58.985Z,9.70
2019-04-04T10:43:58.980Z,10.50
2019-04-04T10:44:58.965Z,9.40
2019-04-04T10:45:58.955Z,10.60
2019-04-04T10:46:58.946Z,11.60
2019-04-04T10:47:58.935Z,9.30
2019-04-04T10:48:58.930Z,8.80
2019-04-04T10:49:58.923Z,8.50
2019-04-04T10:50:58.908Z,8.20
2019-04-04T10:51:58.900Z,8.10
2019-04-04T10:52:58.891Z,10.00
2019-04-04T10:53:58.880Z,7.70
2019-04-04T10:55:01.376Z,7.90
2019-04-04T10:55:58.860Z,8.50
2019-04-04T10:56:58.851Z,8.50
2019-04-04T10:57:58.838Z,9.00
2019-04-04T10:58:58.829Z,8.80
2019-04-04T10:59:58.818Z,7.50
2019-04-04T11:00:58.809Z,9.30
2019-04-04T11:02:01.007Z,7.80
2019-04-04T11:02:58.790Z,8.40
2019-04-04T11:03:58.781Z,9.00
2019-04-04T11:04:58.774Z,8.40
2019-04-04T11:05:58.760Z,8.50
2019-04-04T11:06:58.752Z,8.20
2019-04-04T11:07:58.741Z,9.70
2019-04-04T11:08:58.739Z,9.40
2019-04-04T11:09:58.721Z,10.00
2019-04-04T11:10:59.056Z,9.60
2019-04-04T11:11:58.703Z,9.20
2019-04-04T11:12:58.697Z,7.10
2019-04-04T11:13:58.680Z,8.30
2019-04-04T11:14:58.676Z,9.00
2019-04-04T11:15:58.660Z,7.70
2019-04-04T11:16:58.652Z,10.30
2019-04-04T11:17:58.639Z,9.60
2019-04-04T11:18:58.630Z,7.60
2019-04-04T11:19:58.624Z,9.00
2019-04-04T11:20:58.628Z,8.10
2019-04-04T11:21:58.602Z,9.30
2019-04-04T11:22:58.595Z,9.60
2019-04-04T11:23:58.581Z,8.70
2019-04-04T11:24:58.572Z,9.80
2019-04-04T11:25:58.562Z,9.50
2019-04-04T11:26:58.553Z,10.10
2019-04-04T11:27:58.542Z,9.90
2019-04-04T11:28:58.531Z,7.40
2019-04-04T11:29:58.524Z,8.40
2019-04-04T11:30:58.512Z,8.90
2019-04-04T11:31:58.502Z,7.80
2019-04-04T11:32:58.493Z,9.50
2019-04-04T11:33:58.481Z,9.10
2019-04-04T11:34:58.474Z,9.30
2019-04-04T11:35:58.464Z,10.10
2019-04-04T11:36:58.453Z,8.80
2019-04-04T11:37:58.443Z,8.70
2019-04-04T11:38:58.434Z,9.70
2019-04-04T11:39:58.424Z,9.50
2019-04-04T11:40:58.426Z,7.00
2019-04-04T11:41:58.403Z,9.50
2019-04-04T11:42:58.395Z,7.60
2019-04-04T11:43:58.383Z,8.70
2019-04-04T11:44:58.373Z,8.70
2019-04-04T11:45:58.365Z,8.30
2019-04-04T11:46:58.360Z,6.60
2019-04-04T11:47:58.352Z,6.20
2019-04-04T11:48:58.337Z,6.10
2019-04-04T11:49:58.325Z,6.40
2019-04-04T11:50:58.317Z,6.90
2019-04-04T11:51:58.312Z,6.40
2019-04-04T11:52:58.298Z,12.00
2019-04-04T11:53:58.291Z,8.20
2019-04-04T11:54:58.280Z,6.80
2019-04-04T11:55:58.269Z,7.40
2019-04-04T11:56:58.258Z,7.70
2019-04-04T11:57:58.250Z,8.60
2019-04-04T11:58:58.237Z,7.20
2019-04-04T11:59:58.231Z,8.40
2019-04-04T12:00:58.218Z,7.40
2019-04-04T12:01:58.209Z,8.20
2019-04-04T12:02:58.199Z,7.00
2019-04-04T12:03:58.191Z,7.30
2019-04-04T12:04:58.180Z,7.10
2019-04-04T12:05:58.172Z,6.80
2019-04-04T12:06:58.159Z,7.00
2019-04-04T12:07:58.171Z,6.90
2019-04-04T12:08:58.356Z,8.10
2019-04-04T12:10:07.141Z,6.90
2019-04-04T12:10:59.117Z,7.30
2019-04-04T12:11:58.109Z,8.90
2019-04-04T12:12:58.706Z,6.80
2019-04-04T12:13:58.091Z,6.80
2019-04-04T12:14:58.079Z,7.90
2019-04-04T12:15:58.072Z,9.20
2019-04-04T12:16:58.058Z,8.00
2019-04-04T12:17:58.051Z,7.50
2019-04-04T12:18:58.040Z,7.60
2019-04-04T12:19:58.090Z,7.30
2019-04-04T12:20:58.019Z,7.90
2019-04-04T12:21:58.008Z,8.10
2019-04-04T12:22:57.998Z,6.30
2019-04-04T12:23:57.987Z,8.10
2019-04-04T12:24:57.977Z,7.00
2019-04-04T12:25:57.983Z,7.80
2019-04-04T12:26:57.958Z,7.50
2019-04-04T12:27:57.947Z,6.40
2019-04-04T12:28:57.934Z,7.90
2019-04-04T12:29:57.925Z,6.80
2019-04-04T12:30:57.916Z,6.40
2019-04-04T12:31:57.908Z,8.00
2019-04-04T12:32:57.894Z,9.20
2019-04-04T12:33:57.887Z,8.30
2019-04-04T12:34:57.872Z,8.00
2019-04-04T12:35:57.863Z,7.10
2019-04-04T12:36:57.852Z,6.40
2019-04-04T12:37:57.840Z,8.90
2019-04-04T12:38:57.833Z,8.70
2019-04-04T12:39:57.819Z,7.60
2019-04-04T12:40:57.810Z,6.70
2019-04-04T12:41:57.800Z,6.40
2019-04-04T12:42:57.789Z,7.60
2019-04-04T12:43:57.779Z,6.90
2019-04-04T12:44:57.771Z,9.50
2019-04-04T12:45:57.761Z,8.50
2019-04-04T12:46:57.750Z,8.70
2019-04-04T12:47:57.743Z,7.60
2019-04-04T12:48:57.729Z,8.60
2019-04-04T12:49:57.717Z,8.80
2019-04-04T12:50:57.708Z,9.60
2019-04-04T12:51:57.700Z,8.00
2019-04-04T12:52:57.689Z,9.60
2019-04-04T12:53:57.679Z,7.80
2019-04-04T12:54:57.668Z,8.40
2019-04-04T12:55:57.661Z,8.00
2019-04-04T12:56:57.648Z,10.20